Time;durP1;ratioP1;P1;durP2;ratioP2;P2;SDS_P1;SDS_P2;PMS_P1;PMS_P2;Temp;Humidity;BMP_temperature;BMP_pressure;BME280_temperature;BME280_humidity;BME280_pressure;Samples;Min_cycle;Max_cycle;Signal;HPM_P1;HPM_P2
2021/12/06 05:43:48;;;;;;;21.08;14.38;;;;;;;;;;5650825;23;20092;-69
2021/12/06 05:46:15;;;;;;;23.67;15.43;;;;;;;;;;4895763;29;20052;-70
2021/12/06 05:48:41;;;;;;;22.55;14.63;;;;;;;;;;4879380;29;20453;-72
2021/12/06 05:51:07;;;;;;;24.55;14.60;;;;;;;;;;4895525;29;20052;-73
2021/12/06 05:53:34;;;;;;;24.52;15.43;;;;;;;;;;4879020;29;20028;-72
2021/12/06 05:56:01;;;;;;;24.23;15.30;;;;;;;;;;4896040;29;20036;-71
2021/12/06 05:58:28;;;;;;;26.67;16.63;;;;;;;;;;4895830;29;20551;-72
2021/12/06 06:00:55;;;;;;;28.02;17.25;;;;;;;;;;4895896;29;20056;-73
2021/12/06 06:03:21;;;;;;;26.02;16.40;;;;;;;;;;4895826;29;20480;-72
2021/12/06 06:05:47;;;;;;;24.83;15.63;;;;;;;;;;4895928;29;20104;-72
2021/12/06 06:08:13;;;;;;;26.40;15.75;;;;;;;;;;4895748;29;20048;-71
2021/12/06 06:10:39;;;;;;;26.08;15.68;;;;;;;;;;4895943;29;20099;-71
2021/12/06 06:13:06;;;;;;;33.22;20.85;;;;;;;;;;4895934;29;20092;-70
2021/12/06 06:15:32;;;;;;;30.67;19.95;;;;;;;;;;4878010;29;20037;-68
2021/12/06 06:17:59;;;;;;;28.60;16.45;;;;;;;;;;4895539;29;20087;-66
2021/12/06 06:20:43;;;;;;;28.10;16.92;;;;;;;;;;4895335;29;20031;-72
2021/12/06 06:23:09;;;;;;;32.80;18.73;;;;;;;;;;4895568;29;20033;-74
2021/12/06 06:25:35;;;;;;;32.70;17.83;;;;;;;;;;4878450;29;20036;-71
2021/12/06 06:28:02;;;;;;;31.10;19.15;;;;;;;;;;4895569;29;20084;-73
2021/12/06 06:30:28;;;;;;;30.08;17.98;;;;;;;;;;4895569;29;20017;-72
2021/12/06 06:32:54;;;;;;;29.67;17.40;;;;;;;;;;4895463;29;20028;-69
2021/12/06 06:35:21;;;;;;;30.92;17.83;;;;;;;;;;4895643;29;20024;-68
2021/12/06 06:37:47;;;;;;;27.65;16.52;;;;;;;;;;4895117;29;20037;-70
2021/12/06 06:40:13;;;;;;;27.67;15.88;;;;;;;;;;4895249;29;20043;-67
2021/12/06 06:42:40;;;;;;;27.08;16.10;;;;;;;;;;4895022;29;20063;-72
2021/12/06 06:45:06;;;;;;;28.50;16.63;;;;;;;;;;4908826;29;20519;-70
2021/12/06 06:47:32;;;;;;;25.02;15.48;;;;;;;;;;4917789;29;20047;-70
2021/12/06 06:49:58;;;;;;;28.75;15.88;;;;;;;;;;4917075;29;20024;-67
2021/12/06 06:52:24;;;;;;;30.10;16.60;;;;;;;;;;4917278;29;20694;-73
2021/12/06 06:54:51;;;;;;;25.90;15.13;;;;;;;;;;4917779;29;20035;-70
2021/12/06 06:57:17;;;;;;;31.50;16.77;;;;;;;;;;4899970;29;20040;-72
2021/12/06 06:59:45;;;;;;;28.10;16.08;;;;;;;;;;4917284;29;20036;-72
2021/12/06 07:02:12;;;;;;;27.20;17.17;;;;;;;;;;4917173;29;20027;-72
2021/12/06 07:04:38;;;;;;;30.48;17.38;;;;;;;;;;4917118;29;20036;-72
2021/12/06 07:07:04;;;;;;;26.20;15.10;;;;;;;;;;4917413;29;20040;-72
2021/12/06 07:09:30;;;;;;;30.10;16.08;;;;;;;;;;4917389;29;20031;-72
2021/12/06 07:11:58;;;;;;;31.95;17.83;;;;;;;;;;4916875;29;20247;-72
2021/12/06 07:14:24;;;;;;;32.92;18.45;;;;;;;;;;4917127;29;20044;-72
2021/12/06 07:16:51;;;;;;;28.63;16.30;;;;;;;;;;4900085;29;20369;-74
2021/12/06 07:19:17;;;;;;;28.40;17.75;;;;;;;;;;4917040;29;20039;-70
2021/12/06 07:21:44;;;;;;;27.77;16.55;;;;;;;;;;4917105;29;20033;-70
2021/12/06 07:24:10;;;;;;;29.55;15.38;;;;;;;;;;4917225;29;20145;-73
2021/12/06 07:26:36;;;;;;;25.58;14.43;;;;;;;;;;4917001;29;20034;-70
2021/12/06 07:29:03;;;;;;;29.60;17.67;;;;;;;;;;4916768;29;20021;-72
2021/12/06 07:31:30;;;;;;;29.77;16.60;;;;;;;;;;4916996;29;20032;-73
2021/12/06 07:33:57;;;;;;;28.60;15.55;;;;;;;;;;4916578;29;20035;-70
2021/12/06 07:36:25;;;;;;;29.10;16.20;;;;;;;;;;4916840;29;20043;-73
2021/12/06 07:38:51;;;;;;;26.85;15.98;;;;;;;;;;4917064;29;20028;-71
2021/12/06 07:41:19;;;;;;;27.45;15.07;;;;;;;;;;4916830;29;20112;-68
2021/12/06 07:43:45;;;;;;;24.38;14.63;;;;;;;;;;4917016;29;20186;-72
2021/12/06 07:46:12;;;;;;;23.08;14.63;;;;;;;;;;4916232;29;20072;-71
2021/12/06 07:48:38;;;;;;;26.63;15.27;;;;;;;;;;4916649;29;20035;-70
2021/12/06 07:51:05;;;;;;;24.02;14.65;;;;;;;;;;4916716;29;20104;-75
2021/12/06 07:53:32;;;;;;;23.95;15.48;;;;;;;;;;4916762;29;20029;-72
2021/12/06 07:55:58;;;;;;;26.45;15.60;;;;;;;;;;4916020;29;20111;-74
2021/12/06 07:58:25;;;;;;;25.40;15.13;;;;;;;;;;4916050;29;20044;-68
2021/12/06 08:00:51;;;;;;;22.77;14.40;;;;;;;;;;4916683;29;20168;-73
2021/12/06 08:03:20;;;;;;;26.45;14.52;;;;;;;;;;4916523;29;20380;-70
2021/12/06 08:05:47;;;;;;;24.17;13.80;;;;;;;;;;4916433;29;20031;-71
2021/12/06 08:08:15;;;;;;;22.45;13.45;;;;;;;;;;4915692;29;20048;-74
2021/12/06 08:10:46;;;;;;;21.67;12.25;;;;;;;;;;4916323;29;20358;-73
2021/12/06 08:13:13;;;;;;;19.45;12.63;;;;;;;;;;4916131;29;20476;-68
2021/12/06 08:15:39;;;;;;;22.05;12.55;;;;;;;;;;4916465;29;20048;-68
2021/12/06 08:18:06;;;;;;;29.35;16.02;;;;;;;;;;4914944;29;20032;-66
2021/12/06 08:20:32;;;;;;;30.92;15.88;;;;;;;;;;4915956;29;20032;-75
2021/12/06 08:22:58;;;;;;;23.98;15.00;;;;;;;;;;4915610;29;20055;-74
2021/12/06 08:25:24;;;;;;;23.55;14.57;;;;;;;;;;4915812;29;20024;-71
2021/12/06 08:27:50;;;;;;;21.05;13.27;;;;;;;;;;4915881;29;20036;-68
2021/12/06 08:30:21;;;;;;;20.10;12.35;;;;;;;;;;4915914;29;20038;-76
2021/12/06 08:32:48;;;;;;;22.90;14.00;;;;;;;;;;4915791;29;20035;-70
2021/12/06 08:35:14;;;;;;;24.88;14.48;;;;;;;;;;4898216;29;20020;-74
2021/12/06 08:37:40;;;;;;;23.60;14.85;;;;;;;;;;4914632;29;20096;-73
2021/12/06 08:40:07;;;;;;;26.17;15.43;;;;;;;;;;4914515;29;20111;-69
2021/12/06 08:42:33;;;;;;;22.10;13.35;;;;;;;;;;4914589;29;20028;-73
2021/12/06 08:44:59;;;;;;;23.98;13.35;;;;;;;;;;4914548;29;20123;-72
2021/12/06 08:47:25;;;;;;;19.45;12.57;;;;;;;;;;4914453;29;20146;-72
2021/12/06 08:49:52;;;;;;;22.20;13.82;;;;;;;;;;4915027;29;20020;-70
2021/12/06 08:52:18;;;;;;;20.83;12.75;;;;;;;;;;4915718;29;20492;-73
2021/12/06 08:54:44;;;;;;;22.52;13.63;;;;;;;;;;4915730;29;20043;-69
2021/12/06 08:57:11;;;;;;;20.05;13.02;;;;;;;;;;4915745;29;20075;-70
2021/12/06 08:59:37;;;;;;;26.15;15.68;;;;;;;;;;4897713;29;20079;-67
2021/12/06 09:02:03;;;;;;;24.27;15.48;;;;;;;;;;4915597;29;20024;-67
2021/12/06 09:04:34;;;;;;;27.90;18.90;;;;;;;;;;4915446;29;20028;-71
2021/12/06 09:07:01;;;;;;;22.00;14.52;;;;;;;;;;4914802;29;20083;-72
2021/12/06 09:09:28;;;;;;;18.85;12.27;;;;;;;;;;4915460;29;20036;-70
2021/12/06 09:11:55;;;;;;;18.63;12.65;;;;;;;;;;4915083;29;20032;-67
2021/12/06 09:14:22;;;;;;;18.08;13.02;;;;;;;;;;4915040;29;20063;-72
2021/12/06 09:16:48;;;;;;;23.02;14.32;;;;;;;;;;4915303;29;20492;-73
2021/12/06 09:19:15;;;;;;;21.23;14.80;;;;;;;;;;4915043;29;20048;-70
2021/12/06 09:21:43;;;;;;;25.50;16.17;;;;;;;;;;4913991;29;20024;-69
2021/12/06 09:24:12;;;;;;;26.92;17.17;;;;;;;;;;4913690;29;20028;-69
2021/12/06 09:26:38;;;;;;;22.23;14.80;;;;;;;;;;4911541;29;20024;-72
2021/12/06 09:29:05;;;;;;;22.55;14.48;;;;;;;;;;4913921;29;20032;-71
2021/12/06 09:31:31;;;;;;;20.65;14.40;;;;;;;;;;4913799;29;20059;-75
2021/12/06 09:33:57;;;;;;;21.08;13.68;;;;;;;;;;4913668;29;20040;-69
2021/12/06 09:36:23;;;;;;;20.08;13.73;;;;;;;;;;4913640;29;20035;-68
2021/12/06 09:38:50;;;;;;;21.83;14.73;;;;;;;;;;4913334;29;20044;-74
2021/12/06 09:41:20;;;;;;;22.48;14.82;;;;;;;;;;4910699;29;20020;-74
2021/12/06 09:43:47;;;;;;;22.23;14.88;;;;;;;;;;4913317;29;20476;-71
2021/12/06 09:46:13;;;;;;;22.80;14.60;;;;;;;;;;4908536;29;20098;-72
2021/12/06 09:48:41;;;;;;;20.90;14.40;;;;;;;;;;4901364;29;20481;-74
2021/12/06 09:51:10;;;;;;;21.60;14.85;;;;;;;;;;4908943;29;20048;-70
2021/12/06 09:53:37;;;;;;;25.05;17.52;;;;;;;;;;4905581;29;20035;-71
2021/12/06 09:56:06;;;;;;;24.40;15.68;;;;;;;;;;4905075;29;20107;-67
2021/12/06 09:58:33;;;;;;;28.35;18.25;;;;;;;;;;4903258;29;20067;-71
2021/12/06 10:01:01;;;;;;;26.52;17.55;;;;;;;;;;4905088;29;20039;-66
2021/12/06 10:03:29;;;;;;;24.25;16.00;;;;;;;;;;4903040;29;20370;-66
2021/12/06 10:06:01;;;;;;;27.13;16.85;;;;;;;;;;4902456;29;20024;-68
2021/12/06 10:08:28;;;;;;;25.45;16.63;;;;;;;;;;4905481;29;20034;-68
2021/12/06 10:10:54;;;;;;;26.95;16.50;;;;;;;;;;4905622;29;20064;-70
2021/12/06 10:13:20;;;;;;;25.55;16.88;;;;;;;;;;4909028;29;20044;-71
2021/12/06 10:15:48;;;;;;;22.48;13.98;;;;;;;;;;4914513;29;20495;-70
2021/12/06 10:18:16;;;;;;;26.60;15.95;;;;;;;;;;4911495;29;20040;-76
2021/12/06 10:20:43;;;;;;;30.52;19.40;;;;;;;;;;4917999;29;20076;-70
2021/12/06 10:23:13;;;;;;;34.55;21.98;;;;;;;;;;4910662;29;20036;-68
2021/12/06 10:25:42;;;;;;;30.45;20.70;;;;;;;;;;4899294;29;20027;-70
2021/12/06 10:28:09;;;;;;;35.08;23.38;;;;;;;;;;4899069;29;20473;-74
2021/12/06 10:30:41;;;;;;;35.75;21.95;;;;;;;;;;4898806;29;20028;-69
2021/12/06 10:33:09;;;;;;;34.42;21.33;;;;;;;;;;4899092;29;20036;-72
2021/12/06 10:35:38;;;;;;;29.52;18.58;;;;;;;;;;4908128;29;20133;-73
2021/12/06 10:38:04;;;;;;;34.30;20.30;;;;;;;;;;4917461;29;20103;-71
2021/12/06 10:40:33;;;;;;;28.05;17.77;;;;;;;;;;4918222;29;20039;-70
2021/12/06 10:43:01;;;;;;;29.10;17.80;;;;;;;;;;4917931;29;20059;-74
2021/12/06 10:45:32;;;;;;;34.38;21.35;;;;;;;;;;4917310;29;20452;-72
2021/12/06 10:48:26;;;;;;;30.48;18.60;;;;;;;;;;4917993;29;20071;-75
2021/12/06 10:50:52;;;;;;;31.08;18.95;;;;;;;;;;4916144;29;20041;-74
2021/12/06 10:53:19;;;;;;;29.23;18.02;;;;;;;;;;4917494;29;20051;-74
2021/12/06 10:55:47;;;;;;;29.92;18.65;;;;;;;;;;4917876;29;20058;-75
2021/12/06 10:58:17;;;;;;;30.25;18.25;;;;;;;;;;4917644;29;20075;-75
2021/12/06 11:01:02;;;;;;;29.23;18.08;;;;;;;;;;4917605;29;20039;-74
2021/12/06 11:03:36;;;;;;;27.52;18.08;;;;;;;;;;4917504;29;20076;-74
2021/12/06 11:06:04;;;;;;;27.70;17.80;;;;;;;;;;4917671;29;20020;-75
2021/12/06 11:08:34;;;;;;;26.80;17.75;;;;;;;;;;4917472;29;20024;-71
2021/12/06 11:11:03;;;;;;;33.13;19.92;;;;;;;;;;4917118;29;20020;-74
2021/12/06 11:13:31;;;;;;;32.75;19.00;;;;;;;;;;4917381;29;20487;-73
2021/12/06 11:15:57;;;;;;;32.85;19.58;;;;;;;;;;4916921;29;20047;-73
2021/12/06 11:18:38;;;;;;;28.85;18.90;;;;;;;;;;4907519;29;20037;-75
2021/12/06 11:21:06;;;;;;;26.40;17.20;;;;;;;;;;4905309;29;20028;-67
2021/12/06 11:23:32;;;;;;;37.80;19.75;;;;;;;;;;4906835;29;20103;-70
2021/12/06 11:25:59;;;;;;;35.13;18.75;;;;;;;;;;4909388;29;20135;-69
2021/12/06 11:28:30;;;;;;;28.92;15.88;;;;;;;;;;4906982;29;20453;-67
2021/12/06 11:31:04;;;;;;;30.75;17.35;;;;;;;;;;4905458;29;20033;-68
2021/12/06 11:33:31;;;;;;;30.15;17.38;;;;;;;;;;4902424;29;20035;-69
2021/12/06 11:35:57;;;;;;;25.83;16.25;;;;;;;;;;4897952;29;20044;-71
2021/12/06 11:38:23;;;;;;;28.27;17.33;;;;;;;;;;4902599;29;20063;-69
2021/12/06 11:40:49;;;;;;;29.48;18.52;;;;;;;;;;4906706;29;20031;-68
2021/12/06 11:43:17;;;;;;;27.85;18.27;;;;;;;;;;4904921;29;20112;-69
2021/12/06 11:45:50;;;;;;;30.63;18.80;;;;;;;;;;4905660;29;20799;-69
2021/12/06 11:48:17;;;;;;;28.33;18.73;;;;;;;;;;4906225;29;20016;-70
2021/12/06 11:50:45;;;;;;;30.58;18.00;;;;;;;;;;4904483;29;20028;-65
2021/12/06 11:53:11;;;;;;;30.58;18.60;;;;;;;;;;4905324;29;20044;-69
2021/12/06 11:55:43;;;;;;;29.60;17.83;;;;;;;;;;4903514;29;20068;-66
2021/12/06 11:58:20;;;;;;;28.50;18.15;;;;;;;;;;4905477;29;20096;-72
2021/12/06 12:00:46;;;;;;;27.33;17.73;;;;;;;;;;4915793;29;20495;-67
2021/12/06 12:03:12;;;;;;;24.05;15.98;;;;;;;;;;4916164;29;20090;-64
2021/12/06 12:05:39;;;;;;;26.67;16.73;;;;;;;;;;4916342;29;20032;-65
2021/12/06 12:08:07;;;;;;;26.98;16.30;;;;;;;;;;4915910;29;20067;-65
2021/12/06 12:10:42;;;;;;;26.63;16.42;;;;;;;;;;4914682;29;20039;-65
2021/12/06 12:13:10;;;;;;;28.40;18.02;;;;;;;;;;4915588;29;20134;-69
2021/12/06 12:15:36;;;;;;;25.63;16.13;;;;;;;;;;4914836;29;20036;-64
2021/12/06 12:18:03;;;;;;;26.88;15.88;;;;;;;;;;4914250;29;20099;-66
2021/12/06 12:20:30;;;;;;;23.40;14.82;;;;;;;;;;4915489;29;20400;-67
2021/12/06 12:22:59;;;;;;;23.90;15.40;;;;;;;;;;4915571;29;20080;-66
2021/12/06 12:26:11;;;;;;;24.60;14.63;;;;;;;;;;4915854;29;20103;-65
2021/12/06 12:28:19;;;;;;;23.58;15.02;;;;;;;;;;4912726;29;20099;-63
2021/12/06 12:30:46;;;;;;;21.38;13.15;;;;;;;;;;4915426;29;20059;-68
2021/12/06 12:33:13;;;;;;;25.75;16.25;;;;;;;;;;4915621;29;20547;-65
2021/12/06 12:35:41;;;;;;;23.52;15.15;;;;;;;;;;4915470;29;20028;-68
2021/12/06 12:38:10;;;;;;;23.25;14.45;;;;;;;;;;4915445;29;20481;-67
2021/12/06 12:40:42;;;;;;;20.85;13.95;;;;;;;;;;4914544;29;20029;-64
2021/12/06 12:43:10;;;;;;;22.83;14.75;;;;;;;;;;4915638;29;20031;-64
2021/12/06 12:45:45;;;;;;;22.70;14.43;;;;;;;;;;4914892;29;20532;-64
2021/12/06 12:48:12;;;;;;;23.52;15.07;;;;;;;;;;4915406;29;20485;-66
2021/12/06 12:50:39;;;;;;;22.42;15.00;;;;;;;;;;4914843;29;20492;-71
2021/12/06 12:53:08;;;;;;;27.67;17.13;;;;;;;;;;4915263;29;20451;-66
2021/12/06 12:55:41;;;;;;;26.23;16.38;;;;;;;;;;4915059;29;20380;-66
2021/12/06 12:58:13;;;;;;;29.17;18.55;;;;;;;;;;4915233;29;20111;-67
2021/12/06 13:00:58;;;;;;;33.28;19.08;;;;;;;;;;4915168;29;20024;-69
2021/12/06 13:03:35;;;;;;;29.85;19.50;;;;;;;;;;4915284;29;20060;-69
2021/12/06 13:06:20;;;;;;;27.90;18.35;;;;;;;;;;4915163;29;20079;-68
2021/12/06 13:08:47;;;;;;;27.58;18.15;;;;;;;;;;4915436;29;20036;-67
2021/12/06 13:11:14;;;;;;;25.02;16.92;;;;;;;;;;4915479;29;20103;-69
2021/12/06 13:13:48;;;;;;;30.05;18.33;;;;;;;;;;4898110;29;20035;-70
2021/12/06 13:19:23;;;;;;;30.23;18.95;;;;;;;;;;4835514;29;20081;-68
2021/12/06 13:22:05;;;;;;;30.70;18.73;;;;;;;;;;4840004;29;20050;-69
2021/12/06 13:24:33;;;;;;;27.90;16.73;;;;;;;;;;4837275;29;20038;-67
2021/12/06 13:27:02;;;;;;;30.10;17.42;;;;;;;;;;4837645;29;20561;-70
2021/12/06 13:29:38;;;;;;;27.10;17.02;;;;;;;;;;4837422;29;20105;-66
2021/12/06 13:32:23;;;;;;;30.15;18.52;;;;;;;;;;4838069;29;20057;-67
2021/12/06 13:34:54;;;;;;;34.95;20.52;;;;;;;;;;4837632;29;20048;-71
2021/12/06 13:37:25;;;;;;;33.75;19.77;;;;;;;;;;4836813;29;20132;-65
2021/12/06 13:39:51;;;;;;;26.73;16.73;;;;;;;;;;4836656;29;20124;-70
2021/12/06 13:42:35;;;;;;;26.50;16.73;;;;;;;;;;4836707;29;20034;-66
2021/12/06 13:45:04;;;;;;;21.42;14.52;;;;;;;;;;4834714;29;20060;-66
2021/12/06 13:47:31;;;;;;;21.75;13.88;;;;;;;;;;4835471;29;20065;-64
2021/12/06 13:50:01;;;;;;;23.58;14.35;;;;;;;;;;4835303;29;20050;-71
2021/12/06 13:52:48;;;;;;;21.20;14.40;;;;;;;;;;4835652;29;20392;-71
2021/12/06 13:55:33;;;;;;;24.48;15.15;;;;;;;;;;4843761;29;20036;-71
2021/12/06 13:58:05;;;;;;;23.85;15.10;;;;;;;;;;4908055;29;20120;-69
2021/12/06 14:00:31;;;;;;;;;;;;;;;;;;4904737;29;20020;-65
2021/12/06 14:03:01;;;;;;;22.85;14.07;;;;;;;;;;4903970;29;19922;-71
2021/12/06 14:05:28;;;;;;;22.88;15.38;;;;;;;;;;4901518;29;20024;-69
2021/12/06 14:07:56;;;;;;;22.75;14.98;;;;;;;;;;4903745;29;20420;-68
2021/12/06 14:10:24;;;;;;;23.83;15.55;;;;;;;;;;4904492;29;20028;-73
2021/12/06 14:12:51;;;;;;;23.50;15.50;;;;;;;;;;4904339;29;20364;-74
2021/12/06 14:15:20;;;;;;;23.02;15.43;;;;;;;;;;4902151;29;20084;-65
2021/12/06 14:17:51;;;;;;;25.58;15.88;;;;;;;;;;4903320;29;20115;-70
2021/12/06 14:20:18;;;;;;;24.63;15.45;;;;;;;;;;4902073;29;20459;-69
2021/12/06 14:22:44;;;;;;;23.75;15.20;;;;;;;;;;4904142;29;20112;-72
2021/12/06 14:25:13;;;;;;;27.40;16.27;;;;;;;;;;4903718;29;20031;-71
2021/12/06 14:27:40;;;;;;;27.45;17.48;;;;;;;;;;4901936;29;20381;-71
2021/12/06 14:30:08;;;;;;;25.13;16.20;;;;;;;;;;4904067;29;20474;-76
2021/12/06 14:32:34;;;;;;;23.05;15.20;;;;;;;;;;4903680;29;20033;-67
2021/12/06 14:35:00;;;;;;;23.88;14.73;;;;;;;;;;4902632;29;20037;-72
2021/12/06 14:37:26;;;;;;;25.60;14.60;;;;;;;;;;4907998;29;20509;-73
2021/12/06 14:39:57;;;;;;;27.80;15.93;;;;;;;;;;4914182;29;20404;-67
2021/12/06 14:42:24;;;;;;;23.65;14.90;;;;;;;;;;4914061;29;20035;-66
2021/12/06 14:44:57;;;;;;;27.08;16.45;;;;;;;;;;4913749;29;20448;-67
2021/12/06 14:47:28;;;;;;;24.15;15.77;;;;;;;;;;4913817;29;20032;-69
2021/12/06 14:49:56;;;;;;;27.23;17.35;;;;;;;;;;4913830;29;20029;-69
2021/12/06 14:52:29;;;;;;;26.95;17.25;;;;;;;;;;4908191;29;20389;-64
2021/12/06 14:57:54;;;;;;;27.27;17.63;;;;;;;;;;4890695;29;20076;-75
2021/12/06 15:00:23;;;;;;;30.23;17.35;;;;;;;;;;4894149;29;20044;-70
2021/12/06 15:02:52;;;;;;;28.55;17.52;;;;;;;;;;4898595;29;20029;-72
2021/12/06 15:05:19;;;;;;;30.52;18.08;;;;;;;;;;4898379;29;20033;-72
2021/12/06 15:07:53;;;;;;;33.78;18.50;;;;;;;;;;4897437;29;20024;-67
2021/12/06 15:10:19;;;;;;;31.00;18.92;;;;;;;;;;4897304;29;20060;-64
2021/12/06 15:12:52;;;;;;;30.10;18.33;;;;;;;;;;4897709;29;20108;-73
2021/12/06 15:15:26;;;;;;;31.73;18.45;;;;;;;;;;4898499;29;20025;-72
2021/12/06 15:17:55;;;;;;;32.25;18.58;;;;;;;;;;4897191;29;20040;-72
2021/12/06 15:20:21;;;;;;;30.13;18.20;;;;;;;;;;4897657;29;20436;-66
2021/12/06 15:22:47;;;;;;;26.50;16.10;;;;;;;;;;4898205;29;20039;-70
2021/12/06 15:25:14;;;;;;;23.15;15.60;;;;;;;;;;4897589;29;20025;-69
2021/12/06 15:27:41;;;;;;;24.23;16.15;;;;;;;;;;4897419;29;20401;-76
2021/12/06 15:30:12;;;;;;;23.75;15.40;;;;;;;;;;4897662;29;20043;-69
2021/12/06 15:32:38;;;;;;;22.85;15.90;;;;;;;;;;4897328;29;20087;-65
2021/12/06 15:35:04;;;;;;;26.98;16.50;;;;;;;;;;4897709;29;20396;-67
2021/12/06 15:37:31;;;;;;;24.70;16.23;;;;;;;;;;4897964;29;20033;-73
2021/12/06 15:39:57;;;;;;;24.17;15.45;;;;;;;;;;4897323;29;20099;-73
2021/12/06 15:42:27;;;;;;;22.88;15.65;;;;;;;;;;4897926;29;20067;-68
2021/12/06 15:44:54;;;;;;;24.88;15.52;;;;;;;;;;4902714;29;20132;-70
2021/12/06 15:47:20;;;;;;;22.67;15.65;;;;;;;;;;4911433;29;20364;-72
2021/12/06 15:49:48;;;;;;;22.45;15.68;;;;;;;;;;4907321;29;20056;-70
2021/12/06 15:52:17;;;;;;;22.95;15.57;;;;;;;;;;4916577;29;20484;-65
2021/12/06 15:54:45;;;;;;;21.67;14.50;;;;;;;;;;4905106;29;20036;-68
2021/12/06 15:57:17;;;;;;;20.27;14.40;;;;;;;;;;4907603;29;20032;-69
2021/12/06 15:59:44;;;;;;;20.75;13.88;;;;;;;;;;4915625;29;20036;-64
2021/12/06 16:02:12;;;;;;;22.27;14.80;;;;;;;;;;4905998;29;20615;-71
2021/12/06 16:04:39;;;;;;;20.15;14.40;;;;;;;;;;4904410;29;20055;-65
2021/12/06 16:07:06;;;;;;;24.88;15.15;;;;;;;;;;4905122;29;20025;-65
2021/12/06 16:09:32;;;;;;;20.63;13.98;;;;;;;;;;4905396;29;20066;-71
2021/12/06 16:11:58;;;;;;;21.23;13.43;;;;;;;;;;4902306;29;20051;-70
2021/12/06 16:14:46;;;;;;;19.55;13.23;;;;;;;;;;4906276;29;20032;-71
2021/12/06 16:17:13;;;;;;;18.27;12.95;;;;;;;;;;4917753;29;20083;-71
2021/12/06 16:19:40;;;;;;;19.45;12.43;;;;;;;;;;4915851;29;20123;-68
2021/12/06 16:22:08;;;;;;;19.67;13.05;;;;;;;;;;4915977;29;20035;-70
2021/12/06 16:24:35;;;;;;;17.58;11.95;;;;;;;;;;4915561;29;20064;-70
2021/12/06 16:27:09;;;;;;;19.52;13.05;;;;;;;;;;4897238;29;20092;-71
2021/12/06 16:29:39;;;;;;;20.33;13.77;;;;;;;;;;4896891;29;20025;-68
2021/12/06 16:32:09;;;;;;;20.67;13.55;;;;;;;;;;4896942;29;20084;-64
2021/12/06 16:34:37;;;;;;;23.90;14.93;;;;;;;;;;4896904;29;20112;-70
2021/12/06 16:37:06;;;;;;;22.98;14.20;;;;;;;;;;4896751;29;20054;-70
2021/12/06 16:39:33;;;;;;;23.08;14.90;;;;;;;;;;4897001;29;20100;-71
2021/12/06 16:42:06;;;;;;;23.90;15.38;;;;;;;;;;4896572;29;20029;-69
2021/12/06 16:44:35;;;;;;;23.65;15.60;;;;;;;;;;4899606;29;20047;-66
2021/12/06 16:47:04;;;;;;;23.27;15.77;;;;;;;;;;4912770;29;20050;-68
2021/12/06 16:49:33;;;;;;;25.33;15.82;;;;;;;;;;4915542;29;20037;-65
2021/12/06 16:52:12;;;;;;;23.60;15.45;;;;;;;;;;4916311;29;20039;-65
2021/12/06 16:54:38;;;;;;;24.75;15.18;;;;;;;;;;4900197;29;20115;-65
2021/12/06 16:57:06;;;;;;;22.48;15.30;;;;;;;;;;4896523;29;20037;-66
2021/12/06 16:59:37;;;;;;;22.95;15.15;;;;;;;;;;4905634;29;20039;-68
2021/12/06 17:02:08;;;;;;;26.38;16.23;;;;;;;;;;4903219;29;20042;-69
2021/12/06 17:04:45;;;;;;;23.45;15.70;;;;;;;;;;4908890;29;20084;-68
2021/12/06 17:07:21;;;;;;;21.00;14.40;;;;;;;;;;4910444;29;20032;-68
2021/12/06 17:09:48;;;;;;;19.25;13.65;;;;;;;;;;4915031;29;20028;-67
2021/12/06 17:12:14;;;;;;;19.88;13.10;;;;;;;;;;4906021;29;20104;-71
2021/12/06 17:14:40;;;;;;;21.77;14.18;;;;;;;;;;4910474;29;20043;-70
2021/12/06 17:17:06;;;;;;;22.60;14.00;;;;;;;;;;4904993;29;20384;-66
2021/12/06 17:19:35;;;;;;;20.30;14.05;;;;;;;;;;4905018;29;20039;-70
2021/12/06 17:22:01;;;;;;;20.05;13.48;;;;;;;;;;4908509;29;20108;-69
2021/12/06 17:24:28;;;;;;;22.50;14.73;;;;;;;;;;4898427;29;20034;-70
2021/12/06 17:26:54;;;;;;;21.13;13.93;;;;;;;;;;4896387;29;20044;-71
2021/12/06 17:29:21;;;;;;;21.20;14.32;;;;;;;;;;4896140;29;20024;-65
2021/12/06 17:31:49;;;;;;;22.50;14.73;;;;;;;;;;4895722;29;20080;-70
2021/12/06 17:34:20;;;;;;;21.45;14.20;;;;;;;;;;4895851;29;20108;-69
2021/12/06 17:36:47;;;;;;;23.05;14.73;;;;;;;;;;4895930;29;20421;-69
2021/12/06 17:39:15;;;;;;;24.08;15.25;;;;;;;;;;4895876;29;20388;-69
2021/12/06 17:41:42;;;;;;;24.55;15.05;;;;;;;;;;4896038;29;20020;-70
2021/12/06 17:44:09;;;;;;;22.23;14.57;;;;;;;;;;4895630;29;20036;-68
2021/12/06 17:46:36;;;;;;;20.73;13.75;;;;;;;;;;4914496;29;20048;-67
2021/12/06 17:49:04;;;;;;;23.20;14.10;;;;;;;;;;4914369;29;20172;-69
2021/12/06 17:51:30;;;;;;;23.33;14.98;;;;;;;;;;4914684;29;20025;-71
2021/12/06 17:53:57;;;;;;;22.83;14.80;;;;;;;;;;4915112;29;20093;-71
2021/12/06 17:56:25;;;;;;;23.58;15.20;;;;;;;;;;4914862;29;20032;-69
2021/12/06 18:01:19;;;;;;;23.52;14.23;;;;;;;;;;4903975;29;20021;-69
2021/12/06 18:03:45;;;;;;;20.40;13.18;;;;;;;;;;4903373;29;20377;-67
2021/12/06 18:06:11;;;;;;;20.85;12.88;;;;;;;;;;4904864;29;20496;-68
2021/12/06 18:08:37;;;;;;;19.13;11.68;;;;;;;;;;4903324;29;20028;-71
2021/12/06 18:11:04;;;;;;;18.73;12.00;;;;;;;;;;4903908;29;20388;-72
2021/12/06 18:13:32;;;;;;;17.02;10.82;;;;;;;;;;4904790;29;20052;-69
2021/12/06 18:15:58;;;;;;;16.98;11.40;;;;;;;;;;4903412;29;20124;-69
2021/12/06 18:18:24;;;;;;;16.80;10.48;;;;;;;;;;4895945;29;20503;-70
2021/12/06 18:20:52;;;;;;;14.48;10.75;;;;;;;;;;4913615;29;20031;-71
2021/12/06 18:23:18;;;;;;;17.42;11.90;;;;;;;;;;4913827;29;20038;-71
2021/12/06 18:25:44;;;;;;;18.60;12.40;;;;;;;;;;4914029;29;20032;-70
2021/12/06 18:28:11;;;;;;;18.38;13.05;;;;;;;;;;4913712;29;20024;-70
2021/12/06 18:30:38;;;;;;;18.35;11.68;;;;;;;;;;4913418;29;20032;-70
2021/12/06 18:33:05;;;;;;;17.40;11.93;;;;;;;;;;4913856;29;20043;-70
2021/12/06 18:35:31;;;;;;;18.95;12.63;;;;;;;;;;4914033;29;20028;-67
2021/12/06 18:37:59;;;;;;;18.95;12.93;;;;;;;;;;4913644;29;20045;-67
2021/12/06 18:40:31;;;;;;;21.38;13.25;;;;;;;;;;4916383;29;20036;-71
2021/12/06 18:42:58;;;;;;;;;;;;;;;;;;4918146;29;20028;-71
2021/12/06 18:45:34;;;;;;;23.48;15.27;;;;;;;;;;4916979;29;19958;-72
2021/12/06 18:48:02;;;;;;;25.65;16.08;;;;;;;;;;4917252;29;20112;-73
2021/12/06 18:50:29;;;;;;;24.77;17.13;;;;;;;;;;4917458;29;20503;-66
2021/12/06 18:52:57;;;;;;;24.40;17.00;;;;;;;;;;4917178;29;20028;-69
2021/12/06 18:55:23;;;;;;;28.42;17.30;;;;;;;;;;4917671;29;20036;-72
2021/12/06 18:57:50;;;;;;;28.02;18.58;;;;;;;;;;4917434;29;20037;-72
2021/12/06 19:00:18;;;;;;;23.75;17.10;;;;;;;;;;4916248;29;20511;-74
2021/12/06 19:02:44;;;;;;;27.17;18.38;;;;;;;;;;4916698;29;20047;-67
2021/12/06 19:05:11;;;;;;;28.80;19.15;;;;;;;;;;4917411;29;20036;-74
2021/12/06 19:07:37;;;;;;;27.65;18.17;;;;;;;;;;4917037;29;20358;-73
2021/12/06 19:10:05;;;;;;;29.33;19.02;;;;;;;;;;4917334;29;20048;-74
2021/12/06 19:12:31;;;;;;;26.27;18.33;;;;;;;;;;4917498;29;20038;-74
2021/12/06 19:14:57;;;;;;;32.75;21.13;;;;;;;;;;4917141;29;20040;-73
2021/12/06 19:17:23;;;;;;;31.33;20.67;;;;;;;;;;4916869;29;20044;-72
2021/12/06 19:19:49;;;;;;;30.08;20.10;;;;;;;;;;4916423;29;20154;-65
2021/12/06 19:22:17;;;;;;;28.85;19.65;;;;;;;;;;4916802;29;20083;-73
2021/12/06 19:24:43;;;;;;;32.53;21.48;;;;;;;;;;4917311;29;20457;-68
2021/12/06 19:27:10;;;;;;;32.42;20.15;;;;;;;;;;4916728;29;20039;-73
2021/12/06 19:29:37;;;;;;;28.58;19.45;;;;;;;;;;4916309;29;20032;-66
2021/12/06 19:32:03;;;;;;;30.75;19.63;;;;;;;;;;4916478;29;20043;-74
2021/12/06 19:34:31;;;;;;;29.40;19.88;;;;;;;;;;4899099;29;20404;-69
2021/12/06 19:37:03;;;;;;;28.70;18.77;;;;;;;;;;4916317;29;20034;-71
2021/12/06 19:39:29;;;;;;;;;;;;;;;;;;4917187;29;20036;-66
2021/12/06 19:41:55;;;;;;;30.23;18.95;;;;;;;;;;4916974;29;19915;-67
2021/12/06 19:44:21;;;;;;;28.10;18.85;;;;;;;;;;4915688;29;20043;-70
2021/12/06 19:46:47;;;;;;;29.67;19.65;;;;;;;;;;4916628;29;20052;-76
2021/12/06 19:49:13;;;;;;;31.25;20.52;;;;;;;;;;4916100;29;20033;-68
2021/12/06 19:51:39;;;;;;;32.00;19.92;;;;;;;;;;4914943;29;20027;-71
2021/12/06 19:54:06;;;;;;;32.17;20.45;;;;;;;;;;4916557;29;20037;-64
2021/12/06 19:56:32;;;;;;;29.67;19.98;;;;;;;;;;4916588;29;20028;-68
2021/12/06 19:59:02;;;;;;;32.50;21.02;;;;;;;;;;4915725;29;20126;-74
2021/12/06 20:01:29;;;;;;;36.08;23.10;;;;;;;;;;4915905;29;20067;-73
2021/12/06 20:03:55;;;;;;;36.75;23.08;;;;;;;;;;4916223;29;20060;-74
2021/12/06 20:06:21;;;;;;;35.85;21.70;;;;;;;;;;4915891;29;20091;-77
2021/12/06 20:08:47;;;;;;;34.33;21.55;;;;;;;;;;4916039;29;20036;-76
2021/12/06 20:11:15;;;;;;;32.88;21.17;;;;;;;;;;4916250;29;20032;-72
2021/12/06 20:13:42;;;;;;;33.75;21.30;;;;;;;;;;4915073;29;20024;-76
2021/12/06 20:16:09;;;;;;;35.40;22.20;;;;;;;;;;4915855;29;20048;-75